Salvador Maria, Argentina
Current Conditions -  °F | °C
As of 1:00 PM on Sunday 21 Dec 2014 (Local Time) from SAEZ Reporting Station
Clear Clear  
Wind Chill: 70°   Ceiling: Unl
Heat Index: 70°   Visibility: 6mi
Dew Point: 48°   Wind: 14mph
Humidity: 46%   Direction: 190°S
Pressure: 29.8"   Gusts: NA
Location:  35.31°S, 59.17°W
Report Text: SAEZ 211600Z 19012KT CAVOK 21/09 Q1009
Loading
Personal Weather Stations






























Interactive Weather Map New forecast layout! Learn more

10-Day Weather Forecast

Advertisements
Track Severe Weather on mobile